Time;durP1;ratioP1;P1;durP2;ratioP2;P2;SDS_P1;SDS_P2;PMS_P1;PMS_P2;Temp;Humidity;BMP_temperature;BMP_pressure;BME280_temperature;BME280_humidity;BME280_pressure;Samples;Min_cycle;Max_cycle;Signal;HPM_P1;HPM_P2
2021/07/01 00:02:52;;;;;;;;;;;14.00;99.90;;;;;;6267980;28;19986;-77
2021/07/01 00:05:53;;;;;;;;;;;13.90;99.90;;;;;;6273377;28;20438;-77
2021/07/01 00:08:56;;;;;;;;;;;13.90;99.90;;;;;;6273805;28;20003;-77
2021/07/01 00:12:00;;;;;;;;;;;13.80;99.90;;;;;;6273363;28;19931;-77
2021/07/01 00:15:01;;;;;;;;;;;13.80;99.90;;;;;;6273402;28;19920;-77
2021/07/01 00:18:04;;;;;;;;;;;13.80;99.90;;;;;;6273047;28;19920;-76
2021/07/01 00:21:06;;;;;;;;;;;13.80;99.90;;;;;;6273879;28;19921;-77
2021/07/01 00:24:10;;;;;;;;;;;13.80;99.90;;;;;;6273189;28;20011;-77
2021/07/01 00:27:11;;;;;;;;;;;13.80;99.90;;;;;;6272759;28;20388;-77
2021/07/01 00:30:15;;;;;;;;;;;13.80;99.90;;;;;;6273483;28;19920;-77
2021/07/01 00:33:16;;;;;;;;;;;13.80;99.90;;;;;;6273121;28;19971;-77
2021/07/01 00:36:18;;;;;;;;;;;13.80;99.90;;;;;;6272832;28;19999;-77
2021/07/01 00:39:21;;;;;;;;;;;13.80;99.90;;;;;;6272682;28;20003;-78
2021/07/01 00:42:22;;;;;;;;;;;13.80;99.90;;;;;;6272904;28;19920;-77
2021/07/01 00:45:24;;;;;;;;;;;13.80;99.90;;;;;;6273799;28;20050;-77
2021/07/01 00:48:26;;;;;;;;;;;13.80;99.90;;;;;;6272465;28;19960;-77
2021/07/01 00:51:27;;;;;;;;;;;13.80;99.90;;;;;;6272832;28;19973;-77
2021/07/01 00:54:30;;;;;;;;;;;13.80;99.90;;;;;;6272592;28;20029;-77
2021/07/01 00:57:33;;;;;;;;;;;13.80;99.90;;;;;;6272708;28;20035;-77
2021/07/01 01:00:45;;;;;;;;;;;13.80;99.90;;;;;;6269526;28;19924;-77
2021/07/01 01:03:47;;;;;;;;;;;13.80;99.90;;;;;;6284221;28;19920;-77
2021/07/01 01:06:49;;;;;;;;;;;13.80;99.90;;;;;;6272018;28;20003;-77
2021/07/01 01:09:52;;;;;;;;;;;13.80;99.90;;;;;;6272254;28;19967;-76
2021/07/01 01:12:53;;;;;;;;;;;13.80;99.90;;;;;;6272616;28;20420;-76
2021/07/01 01:15:56;;;;;;;;;;;13.80;99.90;;;;;;6271565;28;20402;-77
2021/07/01 01:18:58;;;;;;;;;;;13.70;99.90;;;;;;6272075;28;20031;-77
2021/07/01 01:22:01;;;;;;;;;;;13.80;99.90;;;;;;6271978;28;19967;-77
2021/07/01 01:25:03;;;;;;;;;;;13.70;99.90;;;;;;6272279;28;20051;-76
2021/07/01 01:28:05;;;;;;;;;;;13.70;99.90;;;;;;6271625;28;20055;-77
2021/07/01 01:31:07;;;;;;;;;;;13.80;99.90;;;;;;6271630;28;20050;-77
2021/07/01 01:34:08;;;;;;;;;;;13.80;99.90;;;;;;6271508;28;19920;-77
2021/07/01 01:37:11;;;;;;;;;;;13.80;99.90;;;;;;6271500;28;20445;-77
2021/07/01 01:40:13;;;;;;;;;;;13.80;99.90;;;;;;6271514;28;19920;-77
2021/07/01 01:43:15;;;;;;;;;;;13.90;99.90;;;;;;6271109;28;20559;-77
2021/07/01 01:46:16;;;;;;;;;;;13.80;99.90;;;;;;6271546;28;19920;-78
2021/07/01 01:49:19;;;;;;;;;;;13.80;99.90;;;;;;6271755;28;20014;-78
2021/07/01 01:52:22;;;;;;;;;;;13.80;99.90;;;;;;6270550;28;20440;-78
2021/07/01 01:55:24;;;;;;;;;;;13.80;99.90;;;;;;6271121;28;19921;-78
2021/07/01 01:58:25;;;;;;;;;;;13.80;99.90;;;;;;6270528;28;20039;-78
2021/07/01 02:01:27;;;;;;;;;;;13.80;99.90;;;;;;6270462;28;20015;-77
2021/07/01 02:04:28;;;;;;;;;;;13.80;99.90;;;;;;6270767;28;19962;-77
2021/07/01 02:07:31;;;;;;;;;;;13.70;99.90;;;;;;6270615;28;19920;-78
2021/07/01 02:10:35;;;;;;;;;;;13.70;99.90;;;;;;6270549;28;19990;-78
2021/07/01 02:13:36;;;;;;;;;;;13.70;99.90;;;;;;6271520;28;19928;-78
2021/07/01 02:16:38;;;;;;;;;;;13.70;99.90;;;;;;6270102;28;20394;-76
2021/07/01 02:19:39;;;;;;;;;;;13.70;99.90;;;;;;6270921;28;20054;-78
2021/07/01 02:22:43;;;;;;;;;;;13.70;99.90;;;;;;6270910;28;20050;-78
2021/07/01 02:25:44;;;;;;;;;;;13.70;99.90;;;;;;6271569;28;20067;-78
2021/07/01 02:28:46;;;;;;;;;;;13.70;99.90;;;;;;6270603;28;20097;-77
2021/07/01 02:31:48;;;;;;;;;;;13.70;99.90;;;;;;6270644;28;19956;-77
2021/07/01 02:34:50;;;;;;;;;;;13.70;99.90;;;;;;6270828;28;20003;-78
2021/07/01 02:37:52;;;;;;;;;;;13.70;99.90;;;;;;6270257;28;20022;-78
2021/07/01 02:40:54;;;;;;;;;;;13.70;99.90;;;;;;6271424;28;19927;-77
2021/07/01 02:43:56;;;;;;;;;;;13.80;99.90;;;;;;6270441;28;20011;-77
2021/07/01 02:46:58;;;;;;;;;;;13.80;99.90;;;;;;6270581;28;19968;-77
2021/07/01 02:49:59;;;;;;;;;;;13.80;99.90;;;;;;6270414;28;20010;-78
2021/07/01 02:53:02;;;;;;;;;;;13.80;99.90;;;;;;6271273;28;19974;-78
2021/07/01 02:56:05;;;;;;;;;;;13.80;99.90;;;;;;6270149;28;19924;-77
2021/07/01 02:59:06;;;;;;;;;;;13.80;99.90;;;;;;6270184;28;20422;-78
2021/07/01 03:02:08;;;;;;;;;;;13.90;99.90;;;;;;6269182;28;19971;-77
2021/07/01 03:05:10;;;;;;;;;;;13.80;99.90;;;;;;6272934;28;20352;-78
2021/07/01 03:08:13;;;;;;;;;;;13.90;99.90;;;;;;6274803;28;20318;-78
2021/07/01 03:11:14;;;;;;;;;;;13.90;99.90;;;;;;6274678;28;20393;-77
2021/07/01 03:14:16;;;;;;;;;;;13.80;99.90;;;;;;6275303;28;19951;-78
2021/07/01 03:17:18;;;;;;;;;;;13.80;99.90;;;;;;6275104;28;19963;-78
2021/07/01 03:20:20;;;;;;;;;;;13.80;99.90;;;;;;6274712;28;19943;-78
2021/07/01 03:23:23;;;;;;;;;;;13.90;99.90;;;;;;6274607;28;20003;-78
2021/07/01 03:26:24;;;;;;;;;;;13.90;99.90;;;;;;6274506;28;19970;-78
2021/07/01 03:29:26;;;;;;;;;;;13.90;99.90;;;;;;6275200;28;20035;-78
2021/07/01 03:32:28;;;;;;;;;;;13.90;99.90;;;;;;6274271;28;19920;-77
2021/07/01 03:35:29;;;;;;;;;;;13.90;99.90;;;;;;6274077;28;19990;-76
2021/07/01 03:38:33;;;;;;;;;;;14.00;99.90;;;;;;6273928;28;19927;-77
2021/07/01 03:41:34;;;;;;;;;;;14.00;99.90;;;;;;6274820;28;20003;-77
2021/07/01 03:44:37;;;;;;;;;;;13.90;99.90;;;;;;6274272;28;19925;-75
2021/07/01 03:47:38;;;;;;;;;;;13.90;99.90;;;;;;6274070;28;20439;-76
2021/07/01 03:50:40;;;;;;;;;;;14.00;99.90;;;;;;6273796;28;20458;-77
2021/07/01 03:53:43;;;;;;;;;;;14.00;99.90;;;;;;6274287;28;20413;-77
2021/07/01 03:56:45;;;;;;;;;;;14.00;99.90;;;;;;6273425;28;19921;-76
2021/07/01 03:59:46;;;;;;;;;;;14.00;99.90;;;;;;6273782;28;19975;-77
2021/07/01 04:02:48;;;;;;;;;;;14.00;99.90;;;;;;6272292;28;19955;-77
2021/07/01 04:05:50;;;;;;;;;;;14.00;99.90;;;;;;6273477;28;19921;-77
2021/07/01 04:08:53;;;;;;;;;;;14.10;99.90;;;;;;6274345;28;19983;-77
2021/07/01 04:11:54;;;;;;;;;;;14.10;99.90;;;;;;6273444;28;20006;-77
2021/07/01 04:14:56;;;;;;;;;;;14.10;99.90;;;;;;6273081;28;20443;-78
2021/07/01 04:17:58;;;;;;;;;;;14.00;99.90;;;;;;6272934;28;20033;-76
2021/07/01 04:20:59;;;;;;;;;;;14.10;99.90;;;;;;6273894;28;20499;-77
2021/07/01 04:24:02;;;;;;;;;;;14.10;99.90;;;;;;6273010;28;20046;-77
2021/07/01 04:27:04;;;;;;;;;;;14.20;99.90;;;;;;6272989;28;19970;-77
2021/07/01 04:30:07;;;;;;;;;;;14.10;99.90;;;;;;6273136;28;20063;-77
2021/07/01 04:33:08;;;;;;;;;;;14.10;99.90;;;;;;6273196;28;20381;-77
2021/07/01 04:36:10;;;;;;;;;;;14.20;99.90;;;;;;6272332;28;20409;-77
2021/07/01 04:39:13;;;;;;;;;;;14.10;99.90;;;;;;6272678;28;20004;-76
2021/07/01 04:42:15;;;;;;;;;;;14.20;99.90;;;;;;6273145;28;20023;-77
2021/07/01 04:45:16;;;;;;;;;;;14.20;99.90;;;;;;6272778;28;20401;-77
2021/07/01 04:48:18;;;;;;;;;;;14.20;99.90;;;;;;6272367;28;20034;-77
2021/07/01 04:51:20;;;;;;;;;;;14.20;99.90;;;;;;6272313;28;19928;-77
2021/07/01 04:54:23;;;;;;;;;;;14.30;99.90;;;;;;6272510;28;19983;-77
2021/07/01 04:57:24;;;;;;;;;;;14.20;99.90;;;;;;6272741;28;19920;-77
2021/07/01 05:00:26;;;;;;;;;;;14.20;99.90;;;;;;6272244;28;20473;-77
2021/07/01 05:03:28;;;;;;;;;;;14.30;99.90;;;;;;6270728;28;20010;-77
2021/07/01 05:06:29;;;;;;;;;;;14.20;99.90;;;;;;6271619;28;20342;-77
2021/07/01 05:09:32;;;;;;;;;;;14.30;99.90;;;;;;6272636;28;19927;-77
2021/07/01 05:12:34;;;;;;;;;;;14.40;99.90;;;;;;6272232;28;19975;-77
2021/07/01 05:15:35;;;;;;;;;;;14.40;99.90;;;;;;6271778;28;20443;-77
2021/07/01 05:18:37;;;;;;;;;;;14.50;99.90;;;;;;6271507;28;19925;-77
2021/07/01 05:21:39;;;;;;;;;;;14.50;99.90;;;;;;6272393;28;19921;-77
2021/07/01 05:24:41;;;;;;;;;;;14.50;99.90;;;;;;6271590;28;19920;-77
2021/07/01 05:27:43;;;;;;;;;;;14.60;99.90;;;;;;6270557;28;20438;-77
2021/07/01 05:30:46;;;;;;;;;;;14.80;99.90;;;;;;6271514;28;19967;-77
2021/07/01 05:33:47;;;;;;;;;;;14.90;99.90;;;;;;6271604;28;20003;-77
2021/07/01 05:36:49;;;;;;;;;;;15.00;99.90;;;;;;6271340;28;19968;-77
2021/07/01 05:39:52;;;;;;;;;;;15.10;99.90;;;;;;6271460;28;19963;-77
2021/07/01 05:42:54;;;;;;;;;;;15.10;99.90;;;;;;6271322;28;19927;-77
2021/07/01 05:45:55;;;;;;;;;;;15.20;99.90;;;;;;6270950;28;20208;-77
2021/07/01 05:48:57;;;;;;;;;;;15.20;99.90;;;;;;6272212;28;20023;-77
2021/07/01 05:52:02;;;;;;;;;;;15.20;99.90;;;;;;6271228;28;19920;-77
2021/07/01 05:55:05;;;;;;;;;;;15.30;99.90;;;;;;6271180;28;20396;-77
2021/07/01 05:58:07;;;;;;;;;;;15.40;99.90;;;;;;6270827;28;20062;-77
2021/07/01 06:01:08;;;;;;;;;;;15.40;99.90;;;;;;6271429;28;20401;-77
2021/07/01 06:04:10;;;;;;;;;;;15.50;99.90;;;;;;6260091;28;20004;-77
2021/07/01 06:07:15;;;;;;;;;;;15.50;99.90;;;;;;6270215;28;19967;-77
2021/07/01 06:10:19;;;;;;;;;;;15.50;99.90;;;;;;6270660;28;19998;-77
2021/07/01 06:13:23;;;;;;;;;;;15.60;99.90;;;;;;6271087;28;20328;-77
2021/07/01 06:16:25;;;;;;;;;;;15.70;99.90;;;;;;6270675;28;19921;-77
2021/07/01 06:19:27;;;;;;;;;;;15.80;99.90;;;;;;6270975;28;19929;-77
2021/07/01 06:22:29;;;;;;;;;;;14.80;99.90;;;;;;6270821;28;20484;-77
2021/07/01 06:25:32;;;;;;;;;;;15.60;99.90;;;;;;6271202;28;19921;-77
2021/07/01 06:28:36;;;;;;;;;;;15.70;99.90;;;;;;6270592;28;20012;-77
2021/07/01 06:31:39;;;;;;;;;;;15.90;99.90;;;;;;6270311;28;20426;-77
2021/07/01 06:34:42;;;;;;;;;;;16.10;99.90;;;;;;6270486;28;19920;-77
2021/07/01 06:37:43;;;;;;;;;;;16.10;99.90;;;;;;6270945;28;19924;-77
2021/07/01 06:40:47;;;;;;;;;;;16.10;99.90;;;;;;6275604;28;19921;-77
2021/07/01 06:43:50;;;;;;;;;;;16.20;99.90;;;;;;6275410;28;19928;-77
2021/07/01 06:46:52;;;;;;;;;;;16.10;99.90;;;;;;6275214;28;20066;-77
2021/07/01 06:49:53;;;;;;;;;;;16.30;99.90;;;;;;6275258;28;20496;-77
2021/07/01 06:52:56;;;;;;;;;;;16.30;99.90;;;;;;6276112;28;20011;-77
2021/07/01 06:55:59;;;;;;;;;;;16.30;99.90;;;;;;6276816;28;20437;-78
2021/07/01 06:59:00;;;;;;;;;;;16.40;99.90;;;;;;6281243;28;19921;-78
2021/07/01 07:02:03;;;;;;;;;;;16.30;99.90;;;;;;6277737;28;19920;-78
2021/07/01 07:05:05;;;;;;;;;;;16.40;99.90;;;;;;6271809;28;19957;-78
2021/07/01 07:08:09;;;;;;;;;;;16.40;99.90;;;;;;6278939;28;20493;-78
2021/07/01 07:11:12;;;;;;;;;;;16.60;99.90;;;;;;6278920;28;19921;-78
2021/07/01 07:14:13;;;;;;;;;;;16.70;99.90;;;;;;6277978;28;19924;-78
2021/07/01 07:17:15;;;;;;;;;;;16.80;99.90;;;;;;6276666;28;19920;-77
2021/07/01 07:20:20;;;;;;;;;;;16.70;99.90;;;;;;6275843;28;19944;-77
2021/07/01 07:23:27;;;;;;;;;;;16.70;99.90;;;;;;6275855;28;19921;-78
2021/07/01 07:26:30;;;;;;;;;;;16.60;99.90;;;;;;6278912;28;20062;-78
2021/07/01 07:29:36;;;;;;;;;;;16.70;99.90;;;;;;6277728;28;19921;-77
2021/07/01 07:32:39;;;;;;;;;;;16.70;99.90;;;;;;6277168;28;19925;-78
2021/07/01 07:35:40;;;;;;;;;;;16.80;99.90;;;;;;6278141;28;19956;-78
2021/07/01 07:38:43;;;;;;;;;;;17.00;99.90;;;;;;6277867;28;20345;-77
2021/07/01 07:41:46;;;;;;;;;;;17.10;99.90;;;;;;6279230;28;20014;-79
2021/07/01 07:44:47;;;;;;;;;;;17.30;99.90;;;;;;6280651;28;20000;-78
2021/07/01 07:47:49;;;;;;;;;;;17.70;99.90;;;;;;6279250;28;20455;-78
2021/07/01 07:50:52;;;;;;;;;;;17.90;99.90;;;;;;6277410;28;20071;-78
2021/07/01 07:53:55;;;;;;;;;;;18.00;99.90;;;;;;6281114;28;19927;-80
2021/07/01 07:56:58;;;;;;;;;;;17.90;99.90;;;;;;6284775;28;20027;-80
2021/07/01 08:00:00;;;;;;;;;;;17.70;99.90;;;;;;6286013;28;19998;-79
2021/07/01 08:03:03;;;;;;;;;;;17.70;99.90;;;;;;6284182;28;20066;-79
2021/07/01 08:06:06;;;;;;;;;;;17.80;99.90;;;;;;6284299;28;19921;-80
2021/07/01 08:09:07;;;;;;;;;;;18.00;99.90;;;;;;6281171;28;20305;-78
2021/07/01 08:12:11;;;;;;;;;;;18.20;99.90;;;;;;6281482;28;19982;-78
2021/07/01 08:15:13;;;;;;;;;;;18.40;99.90;;;;;;6282351;28;20283;-79
2021/07/01 08:18:21;;;;;;;;;;;18.90;99.90;;;;;;6281958;28;19921;-78
2021/07/01 08:21:22;;;;;;;;;;;19.60;99.90;;;;;;6283439;28;19966;-78
2021/07/01 08:24:24;;;;;;;;;;;19.90;99.90;;;;;;6284391;28;20001;-79
2021/07/01 08:27:27;;;;;;;;;;;20.10;99.20;;;;;;6284400;28;19947;-79
2021/07/01 08:30:29;;;;;;;;;;;19.40;98.10;;;;;;6281076;28;20003;-81
2021/07/01 08:33:33;;;;;;;;;;;19.00;98.60;;;;;;6281055;28;20016;-79
2021/07/01 08:36:36;;;;;;;;;;;18.80;99.20;;;;;;6281438;28;20021;-80
2021/07/01 08:39:37;;;;;;;;;;;18.60;99.30;;;;;;6280846;28;19927;-80
2021/07/01 08:42:40;;;;;;;;;;;18.50;98.90;;;;;;6280620;28;20050;-79
2021/07/01 08:45:43;;;;;;;;;;;18.10;99.00;;;;;;6281846;28;19964;-79
2021/07/01 08:48:57;;;;;;;;;;;17.90;99.60;;;;;;6280012;28;20400;-81
2021/07/01 08:52:01;;;;;;;;;;;17.70;99.90;;;;;;6281686;28;19947;-79
2021/07/01 08:55:04;;;;;;;;;;;17.70;99.90;;;;;;6283000;28;20302;-79
2021/07/01 08:58:07;;;;;;;;;;;17.60;99.90;;;;;;6282314;28;19920;-78
2021/07/01 09:01:09;;;;;;;;;;;17.50;99.90;;;;;;6282019;28;19963;-78
2021/07/01 09:04:12;;;;;;;;;;;17.40;99.90;;;;;;6281513;28;20352;-79
2021/07/01 09:07:16;;;;;;;;;;;17.30;99.90;;;;;;6279603;28;19920;-79
2021/07/01 09:10:18;;;;;;;;;;;17.30;99.90;;;;;;6257244;28;20345;-79
2021/07/01 09:13:22;;;;;;;;;;;17.30;99.90;;;;;;6265262;28;20119;-79
2021/07/01 09:16:24;;;;;;;;;;;17.30;99.90;;;;;;6281913;28;19984;-79
2021/07/01 09:19:27;;;;;;;;;;;17.30;99.90;;;;;;6281128;28;20059;-79
2021/07/01 09:22:30;;;;;;;;;;;17.30;99.90;;;;;;6281247;28;19960;-79
2021/07/01 09:25:32;;;;;;;;;;;17.20;99.90;;;;;;6281370;28;19974;-79
2021/07/01 09:28:35;;;;;;;;;;;17.10;99.90;;;;;;6280896;28;19976;-80
2021/07/01 09:31:37;;;;;;;;;;;17.20;99.90;;;;;;6280999;28;19960;-79
2021/07/01 09:34:39;;;;;;;;;;;17.10;99.90;;;;;;6281149;28;19971;-78
2021/07/01 09:37:42;;;;;;;;;;;16.90;99.90;;;;;;6280953;28;19974;-79
2021/07/01 09:40:43;;;;;;;;;;;16.90;99.90;;;;;;6280655;28;20390;-79
2021/07/01 09:43:47;;;;;;;;;;;16.90;99.90;;;;;;6281278;28;19978;-80
2021/07/01 09:46:49;;;;;;;;;;;17.00;99.90;;;;;;6279860;28;19925;-80
2021/07/01 09:49:53;;;;;;;;;;;17.20;99.90;;;;;;6280663;28;19920;-78
2021/07/01 09:52:55;;;;;;;;;;;17.40;99.90;;;;;;6281704;28;19982;-79
2021/07/01 09:56:02;;;;;;;;;;;17.50;99.90;;;;;;6280246;28;19922;-79
2021/07/01 09:59:11;;;;;;;;;;;17.50;99.90;;;;;;6281070;28;19920;-79
2021/07/01 10:02:13;;;;;;;;;;;17.40;99.90;;;;;;6280982;28;20462;-78
2021/07/01 10:05:25;;;;;;;;;;;17.60;99.90;;;;;;6280955;28;19921;-79
2021/07/01 10:08:37;;;;;;;;;;;17.60;99.90;;;;;;6270467;28;19937;-79
2021/07/01 10:11:41;;;;;;;;;;;17.70;99.90;;;;;;6280964;28;19948;-79
2021/07/01 10:14:44;;;;;;;;;;;17.80;99.90;;;;;;6280386;28;20008;-79
2021/07/01 10:18:01;;;;;;;;;;;18.00;99.90;;;;;;6280701;28;19920;-79
2021/07/01 10:21:13;;;;;;;;;;;18.00;99.90;;;;;;6281517;28;19979;-79
2021/07/01 10:24:15;;;;;;;;;;;;;;;;;;6280255;28;19952;-78
2021/07/01 10:27:26;;;;;;;;;;;17.90;99.90;;;;;;6280127;28;19920;-79
2021/07/01 10:30:30;;;;;;;;;;;17.80;99.90;;;;;;6281081;28;19921;-78
2021/07/01 10:33:32;;;;;;;;;;;17.90;99.90;;;;;;6280027;28;19921;-79
2021/07/01 10:36:34;;;;;;;;;;;18.00;99.90;;;;;;6280570;28;20392;-79
2021/07/01 10:39:36;;;;;;;;;;;18.20;99.90;;;;;;6279697;28;19986;-78
2021/07/01 10:42:48;;;;;;;;;;;18.30;99.90;;;;;;6280771;28;19972;-78
2021/07/01 10:45:56;;;;;;;;;;;18.50;99.90;;;;;;6280622;28;20099;-78
2021/07/01 10:48:57;;;;;;;;;;;18.60;99.90;;;;;;6279960;28;20013;-80
2021/07/01 10:52:00;;;;;;;;;;;18.40;99.90;;;;;;6279771;28;19999;-78
2021/07/01 10:55:01;;;;;;;;;;;18.20;99.90;;;;;;6279339;28;19948;-78
2021/07/01 10:58:03;;;;;;;;;;;17.80;99.90;;;;;;6278842;28;19984;-79
2021/07/01 11:01:06;;;;;;;;;;;17.70;99.90;;;;;;6279166;28;19921;-79
2021/07/01 11:04:09;;;;;;;;;;;18.00;99.90;;;;;;6279993;28;19982;-79
2021/07/01 11:07:10;;;;;;;;;;;;;;;;;;6279321;28;19976;-79
2021/07/01 11:10:13;;;;;;;;;;;19.10;98.80;;;;;;6273336;28;20378;-77
2021/07/01 11:13:14;;;;;;;;;;;19.30;97.50;;;;;;6275963;28;19982;-78
2021/07/01 11:16:17;;;;;;;;;;;19.30;96.00;;;;;;6275872;28;19956;-79
2021/07/01 11:19:21;;;;;;;;;;;19.40;96.20;;;;;;6281396;28;19963;-78
2021/07/01 11:22:42;;;;;;;;;;;19.50;95.30;;;;;;6278743;28;19920;-79
2021/07/01 11:25:44;;;;;;;;;;;19.60;94.20;;;;;;6278771;28;19964;-78
2021/07/01 11:28:46;;;;;;;;;;;20.00;93.20;;;;;;6279535;28;19921;-78
2021/07/01 11:31:49;;;;;;;;;;;20.70;94.30;;;;;;6282303;28;19948;-78
2021/07/01 11:34:52;;;;;;;;;;;21.10;90.40;;;;;;6284529;28;19984;-79
2021/07/01 11:37:55;;;;;;;;;;;21.40;88.40;;;;;;6281374;28;20386;-79
2021/07/01 11:40:59;;;;;;;;;;;21.70;86.80;;;;;;6285637;28;19927;-78
2021/07/01 11:44:01;;;;;;;;;;;21.80;84.90;;;;;;6285494;28;20354;-78
2021/07/01 11:47:04;;;;;;;;;;;21.70;83.70;;;;;;6285659;28;19978;-77
2021/07/01 11:50:06;;;;;;;;;;;21.30;83.70;;;;;;6284968;28;19921;-78
2021/07/01 11:53:08;;;;;;;;;;;20.90;83.80;;;;;;6283467;28;19959;-78
2021/07/01 11:56:10;;;;;;;;;;;20.50;85.40;;;;;;6282196;28;19947;-78
2021/07/01 11:59:11;;;;;;;;;;;20.10;86.10;;;;;;6284120;28;19927;-77
2021/07/01 12:02:15;;;;;;;;;;;19.90;86.80;;;;;;6283042;28;19920;-79
2021/07/01 12:05:17;;;;;;;;;;;19.70;88.10;;;;;;6283603;28;19927;-78
2021/07/01 12:08:19;;;;;;;;;;;19.50;89.20;;;;;;6282713;28;19944;-77
2021/07/01 12:11:20;;;;;;;;;;;19.30;89.90;;;;;;6276698;28;19978;-78
2021/07/01 12:14:30;;;;;;;;;;;19.10;90.30;;;;;;6282475;28;20006;-78
2021/07/01 12:17:50;;;;;;;;;;;18.90;91.10;;;;;;6279238;28;20006;-81
2021/07/01 12:20:54;;;;;;;;;;;18.60;91.10;;;;;;6282857;28;19921;-77
2021/07/01 12:23:57;;;;;;;;;;;18.40;91.60;;;;;;6283849;28;20092;-77
2021/07/01 12:26:58;;;;;;;;;;;18.30;91.90;;;;;;6281941;28;19966;-77
2021/07/01 12:30:00;;;;;;;;;;;18.20;91.90;;;;;;6284125;28;19931;-79
2021/07/01 12:33:28;;;;;;;;;;;18.20;92.40;;;;;;6285839;28;19971;-78
2021/07/01 12:36:32;;;;;;;;;;;18.20;92.60;;;;;;6282125;28;19920;-79
2021/07/01 12:39:39;;;;;;;;;;;18.30;92.70;;;;;;6285065;28;20271;-78
2021/07/01 12:42:41;;;;;;;;;;;18.50;92.50;;;;;;6286898;28;19979;-80
2021/07/01 12:45:43;;;;;;;;;;;19.00;92.10;;;;;;6286672;28;19927;-78
2021/07/01 12:48:44;;;;;;;;;;;19.40;91.20;;;;;;6285855;28;19948;-79
2021/07/01 12:51:48;;;;;;;;;;;19.80;90.50;;;;;;6283860;28;19920;-78
2021/07/01 12:54:57;;;;;;;;;;;19.90;89.90;;;;;;6282369;28;20051;-79
2021/07/01 12:57:59;;;;;;;;;;;20.00;88.30;;;;;;6285896;28;20012;-78
2021/07/01 13:01:00;;;;;;;;;;;20.00;88.40;;;;;;6282599;28;19967;-80
2021/07/01 13:04:02;;;;;;;;;;;20.00;87.30;;;;;;6286399;28;20007;-79
2021/07/01 13:07:06;;;;;;;;;;;20.20;87.50;;;;;;6284474;28;20007;-79
2021/07/01 13:10:09;;;;;;;;;;;20.30;86.50;;;;;;6280238;28;22797;-78
2021/07/01 13:13:10;;;;;;;;;;;20.40;85.70;;;;;;6284982;28;19930;-79
2021/07/01 13:16:12;;;;;;;;;;;20.60;84.40;;;;;;6285590;28;20304;-79
2021/07/01 13:19:20;;;;;;;;;;;20.70;84.30;;;;;;6284788;28;19921;-78
2021/07/01 13:22:23;;;;;;;;;;;20.90;84.50;;;;;;6284617;28;19943;-78
2021/07/01 13:25:26;;;;;;;;;;;21.10;83.40;;;;;;6285209;28;19920;-78
2021/07/01 13:28:28;;;;;;;;;;;21.20;82.90;;;;;;6286102;28;19984;-79
2021/07/01 13:31:30;;;;;;;;;;;21.10;82.50;;;;;;6285945;28;19920;-79
2021/07/01 13:34:31;;;;;;;;;;;21.10;81.80;;;;;;6282994;28;19956;-77
2021/07/01 13:37:35;;;;;;;;;;;21.10;80.70;;;;;;6283069;28;20659;-78
2021/07/01 13:40:37;;;;;;;;;;;21.00;79.90;;;;;;6281904;28;19952;-79
2021/07/01 13:43:38;;;;;;;;;;;21.00;78.90;;;;;;6281169;28;20434;-79
2021/07/01 13:46:40;;;;;;;;;;;20.90;79.00;;;;;;6280450;28;19921;-79
2021/07/01 13:49:43;;;;;;;;;;;20.80;78.10;;;;;;6280307;28;19975;-78
2021/07/01 13:52:46;;;;;;;;;;;20.60;77.00;;;;;;6281191;28;19921;-78
2021/07/01 13:55:50;;;;;;;;;;;20.40;78.20;;;;;;6282198;28;19920;-79
2021/07/01 13:58:52;;;;;;;;;;;20.20;78.70;;;;;;6280900;28;19960;-78
2021/07/01 14:01:53;;;;;;;;;;;19.90;78.50;;;;;;6283024;28;20011;-79
2021/07/01 14:04:55;;;;;;;;;;;19.70;79.40;;;;;;6282945;28;19921;-78
2021/07/01 14:07:58;;;;;;;;;;;19.40;80.30;;;;;;6281955;28;19920;-77
2021/07/01 14:11:02;;;;;;;;;;;19.20;80.70;;;;;;6277504;28;19943;-78
2021/07/01 14:14:05;;;;;;;;;;;19.00;82.00;;;;;;6272369;28;19921;-78
2021/07/01 14:17:07;;;;;;;;;;;18.90;82.60;;;;;;6276043;28;19920;-78
2021/07/01 14:20:10;;;;;;;;;;;18.80;83.30;;;;;;6276740;28;19952;-77
2021/07/01 14:23:22;;;;;;;;;;;18.80;84.20;;;;;;6276726;28;20066;-78
2021/07/01 14:26:24;;;;;;;;;;;18.90;85.00;;;;;;6275916;28;20042;-80
2021/07/01 14:29:28;;;;;;;;;;;18.90;85.20;;;;;;6279803;28;20015;-79
2021/07/01 14:32:32;;;;;;;;;;;19.10;85.00;;;;;;6279280;28;20367;-79
2021/07/01 14:35:38;;;;;;;;;;;19.20;84.90;;;;;;6279352;28;20019;-79
2021/07/01 14:38:42;;;;;;;;;;;19.20;84.90;;;;;;6278541;28;19924;-79
2021/07/01 14:41:44;;;;;;;;;;;19.30;85.80;;;;;;6280382;28;19928;-78
2021/07/01 14:44:46;;;;;;;;;;;19.40;85.70;;;;;;6279221;28;19931;-79
2021/07/01 14:47:48;;;;;;;;;;;19.50;85.00;;;;;;6278912;28;19986;-79
2021/07/01 14:50:52;;;;;;;;;;;19.50;84.40;;;;;;6279314;28;19981;-78
2021/07/01 14:54:10;;;;;;;;;;;19.50;84.10;;;;;;6279735;28;19921;-79
2021/07/01 14:57:13;;;;;;;;;;;19.40;83.90;;;;;;6280074;28;19927;-79
2021/07/01 15:00:15;;;;;;;;;;;19.40;84.10;;;;;;6283057;28;19956;-80
2021/07/01 15:03:22;;;;;;;;;;;19.40;83.30;;;;;;6286457;28;20003;-80
2021/07/01 15:06:32;;;;;;;;;;;19.50;82.90;;;;;;6285867;28;19963;-79
2021/07/01 15:09:44;;;;;;;;;;;19.50;83.10;;;;;;6286726;28;20015;-79
2021/07/01 15:12:55;;;;;;;;;;;19.50;82.80;;;;;;6279586;28;19925;-80
2021/07/01 15:15:56;;;;;;;;;;;19.60;82.70;;;;;;6282347;28;20324;-79
2021/07/01 15:18:58;;;;;;;;;;;19.60;81.40;;;;;;6284381;28;20043;-79
2021/07/01 15:22:00;;;;;;;;;;;19.50;82.40;;;;;;6285032;28;20066;-78
2021/07/01 15:25:03;;;;;;;;;;;19.50;81.70;;;;;;6285704;28;19921;-79
2021/07/01 15:28:05;;;;;;;;;;;19.50;81.70;;;;;;6285363;28;20006;-79
2021/07/01 15:31:07;;;;;;;;;;;19.50;81.90;;;;;;6285469;28;20381;-79
2021/07/01 15:34:08;;;;;;;;;;;19.50;81.70;;;;;;6286387;28;19928;-78
2021/07/01 15:37:10;;;;;;;;;;;19.50;82.20;;;;;;6284200;28;20025;-80
2021/07/01 15:40:16;;;;;;;;;;;19.50;81.80;;;;;;6284349;28;19921;-79
2021/07/01 15:43:18;;;;;;;;;;;19.50;82.50;;;;;;6284239;28;19956;-79
2021/07/01 15:46:20;;;;;;;;;;;19.60;81.90;;;;;;6284560;28;20353;-78
2021/07/01 15:49:21;;;;;;;;;;;19.60;82.20;;;;;;6284479;28;19924;-79
2021/07/01 15:52:24;;;;;;;;;;;19.60;82.00;;;;;;6285380;28;19947;-78
2021/07/01 15:55:27;;;;;;;;;;;19.60;81.60;;;;;;6285920;28;19970;-77
2021/07/01 15:58:29;;;;;;;;;;;19.60;81.20;;;;;;6284681;28;19920;-79
2021/07/01 16:01:30;;;;;;;;;;;19.60;81.60;;;;;;6285667;28;19920;-79
2021/07/01 16:04:33;;;;;;;;;;;19.50;82.30;;;;;;6284931;28;19968;-79
2021/07/01 16:07:36;;;;;;;;;;;19.50;82.60;;;;;;6283941;28;19921;-78
2021/07/01 16:10:40;;;;;;;;;;;19.60;82.30;;;;;;6284095;28;19956;-79
2021/07/01 16:13:43;;;;;;;;;;;19.70;81.80;;;;;;6283290;28;19920;-79
2021/07/01 16:16:45;;;;;;;;;;;19.70;81.50;;;;;;6262640;28;19980;-79
2021/07/01 16:19:47;;;;;;;;;;;19.70;81.70;;;;;;6242493;28;20006;-79
2021/07/01 16:22:49;;;;;;;;;;;19.70;82.30;;;;;;6261807;28;19964;-79
2021/07/01 16:25:52;;;;;;;;;;;19.70;82.20;;;;;;6261491;28;19921;-79
2021/07/01 16:28:55;;;;;;;;;;;19.60;82.00;;;;;;6262329;28;19921;-80
2021/07/01 16:31:57;;;;;;;;;;;19.60;82.40;;;;;;6262660;28;19944;-78
2021/07/01 16:34:58;;;;;;;;;;;19.70;82.90;;;;;;6265687;28;19971;-78
2021/07/01 16:38:01;;;;;;;;;;;19.60;83.00;;;;;;6262547;28;19921;-79
2021/07/01 16:41:06;;;;;;;;;;;19.60;83.60;;;;;;6260335;28;20026;-79
2021/07/01 16:44:07;;;;;;;;;;;19.60;83.30;;;;;;6257541;28;20413;-78
2021/07/01 16:47:10;;;;;;;;;;;19.50;83.30;;;;;;6257519;28;19928;-79
2021/07/01 16:50:14;;;;;;;;;;;19.40;84.00;;;;;;6257058;28;19956;-79
2021/07/01 16:53:16;;;;;;;;;;;19.30;84.50;;;;;;6257443;28;20006;-79
2021/07/01 16:56:20;;;;;;;;;;;19.30;85.00;;;;;;6256245;28;20007;-79
2021/07/01 16:59:22;;;;;;;;;;;19.20;85.20;;;;;;6257546;28;19968;-79
2021/07/01 17:02:25;;;;;;;;;;;19.20;85.10;;;;;;6256993;28;19925;-78
2021/07/01 17:05:29;;;;;;;;;;;19.20;85.30;;;;;;6249512;28;20004;-78
2021/07/01 17:08:32;;;;;;;;;;;19.10;85.80;;;;;;6249438;28;20310;-79
2021/07/01 17:11:35;;;;;;;;;;;19.00;86.50;;;;;;6249383;28;19925;-78
2021/07/01 17:14:37;;;;;;;;;;;19.00;86.90;;;;;;6259303;28;20492;-79
2021/07/01 17:17:40;;;;;;;;;;;18.90;87.20;;;;;;6267354;28;20008;-78
2021/07/01 17:20:42;;;;;;;;;;;18.90;87.50;;;;;;6273140;28;19927;-78
2021/07/01 17:23:47;;;;;;;;;;;18.80;87.90;;;;;;6272173;28;19925;-76
2021/07/01 17:26:50;;;;;;;;;;;18.80;88.50;;;;;;6272706;28;19921;-78
2021/07/01 17:29:54;;;;;;;;;;;18.70;88.70;;;;;;6272984;28;19925;-77
2021/07/01 17:32:56;;;;;;;;;;;18.80;89.00;;;;;;6274108;28;20063;-79
2021/07/01 17:36:00;;;;;;;;;;;18.80;89.30;;;;;;6274172;28;20396;-78
2021/07/01 17:39:02;;;;;;;;;;;18.80;89.20;;;;;;6273140;28;19943;-78
2021/07/01 17:42:05;;;;;;;;;;;18.90;89.40;;;;;;6273087;28;20054;-79
2021/07/01 17:45:07;;;;;;;;;;;18.80;89.30;;;;;;6274607;28;20037;-78
2021/07/01 17:48:09;;;;;;;;;;;18.80;89.80;;;;;;6272674;28;20023;-79